CW0775 Weather Reports


Display with metric or nautical units.
time (UTC)temp
F
wind
direction
speed
MPH
gust
MPH
rain 1hr
in
rain 24hr
in
rain mn
in
humidity
%
barometer
mb
20240530101503 64 265 3.0 8.0 0.00 0.38 0.35 71 1006.1
20240530101004 65 270 3.0 15.0 0.00 0.38 0.35 70 1006.4
20240530100505 66 292 4.0 8.0 0.00 0.38 0.35 69 1006.4
20240530100004 66 272 5.0 14.0 0.00 0.38 0.35 67 1006.6
20240530094507 64 293 4.0 10.0 0.00 0.38 0.35 73 1006.4
20240530094006 64 267 0.0 7.0 0.00 0.38 0.35 73 1006.4
20240530093506 64 299 7.0 14.0 0.00 0.38 0.35 74 1006.3
20240530093005 62 292 5.0 8.0 0.00 0.38 0.35 76 1006.3
20240530091506 62 257 3.0 8.0 0.00 0.38 0.35 76 1006.4
20240530091005 62 273 5.0 8.0 0.00 0.38 0.35 75 1006.4
20240530090506 62 282 6.0 10.0 0.00 0.38 0.35 76 1006.6
20240530090005 62 294 3.0 10.0 0.00 0.38 0.35 76 1006.7
20240530084506 62 283 2.0 8.0 0.00 0.38 0.35 76 1006.8
20240530083506 62 281 1.0 5.0 0.00 0.38 0.35 76 1006.8
20240530083006 62 285 2.0 8.0 0.00 0.38 0.35 77 1006.8
20240530081505 61 295 2.0 8.0 0.00 0.38 0.35 76 1006.8
20240530081006 61 266 5.0 7.0 0.00 0.38 0.35 76 1006.8
20240530080506 62 264 1.0 7.0 0.00 0.38 0.35 77 1006.8
20240530080005 62 199 2.0 10.0 0.00 0.38 0.35 78 1006.8
20240530074506 61 268 3.0 13.0 0.00 0.38 0.35 78 1006.8
20240530074005 60 287 9.0 15.0 0.00 0.38 0.35 78 1006.8
20240530073505 61 285 6.0 13.0 0.00 0.38 0.35 78 1006.5
20240530073005 61 282 5.0 10.0 0.00 0.38 0.35 79 1006.6
20240530071005 60 260 2.0 5.0 0.00 0.38 0.35 84 1006.7
20240530070505 59 277 3.0 5.0 0.00 0.38 0.35 83 1006.8
20240530070005 59 264 2.0 7.0 0.00 0.38 0.35 83 1006.7
20240530064006 58 288 2.0 7.0 0.00 0.38 0.35 84 1006.7
20240530063506 58 253 0.0 8.0 0.00 0.38 0.35 85 1006.4
20240530063005 58 274 4.0 13.0 0.01 0.38 0.35 84 1006.4
20240530061505 59 266 3.0 5.0 0.01 0.38 0.35 84 1006.4
20240530061006 60 303 1.0 3.0 0.01 0.38 0.35 85 1006.4
20240530060506 59 265 1.0 3.0 0.01 0.38 0.35 85 1006.3
20240530060006 58 267 1.0 8.0 0.01 0.38 0.35 85 1006.2
20240530054005 57 246 3.0 5.0 0.01 0.38 0.35 87 1006.1
20240530053505 57 279 2.0 3.0 0.01 0.38 0.35 88 1006.4
20240530051505 54 277 2.0 5.0 0.00 0.37 0.34 91 1006.4
20240530050005 54 305 4.0 8.0 0.00 0.37 0.34 93 1006.4
20240530044005 54 262 0.0 0.0 0.00 0.37 0.34 94 1006.4
20240530043505 53 257 0.0 2.0 0.00 0.37 0.34 94 1006.4
20240530043006 53 266 0.0 3.0 0.00 0.37 0.34 94 1006.1
20240530041505 53 267 1.0 3.0 0.00 0.37 0.34 94 1006.1
20240530041004 53 268 2.0 3.0 0.00 0.37 0.34 94 1006.1
20240530040506 53 257 0.0 2.0 0.00 0.37 0.34 94 1006.0
20240530040005 53 269 0.0 3.0 0.00 0.37 0.34 94 1006.0
20240530034005 54 263 0.0 0.0 0.00 0.37 0.34 94 1006.1
20240530033505 54 255 0.0 0.0 0.00 0.37 0.34 94 1006.1
20240530033005 54 265 0.0 2.0 0.00 0.37 0.34 94 1005.9
20240530031504 54 268 0.0 2.0 0.00 0.37 0.34 94 1006.2
20240530031005 54 274 2.0 2.0 0.00 0.37 0.34 94 1006.1
20240530030506 54 265 0.0 3.0 0.01 0.37 0.34 94 1006.1
20240530024506 54 228 1.0 2.0 0.02 0.37 0.34 94 1006.4
20240530024005 54 252 1.0 3.0 0.03 0.37 0.34 94 1006.3
20240530023505 54 270 2.0 3.0 0.04 0.37 0.34 94 1006.4
20240530023005 54 270 1.0 2.0 0.05 0.37 0.34 94 1006.4
20240530021505 54 242 0.0 3.0 0.07 0.37 0.34 94 1006.4
20240530021005 55 262 0.0 2.0 0.09 0.37 0.34 94 1006.4
20240530020004 56 238 1.0 2.0 0.09 0.36 0.33 94 1006.4
20240530014506 55 266 1.0 2.0 0.10 0.35 0.32 94 1006.8
20240530014005 55 267 2.0 5.0 0.09 0.34 0.31 94 1006.8
20240530013005 56 259 1.0 2.0 0.10 0.32 0.29 94 1007.1
20240530011505 56 268 0.0 0.0 0.11 0.30 0.27 94 1007.1
20240530011005 56 277 0.0 0.0 0.10 0.28 0.25 93 1007.1
20240530010506 56 240 0.0 0.0 0.10 0.27 0.24 93 1007.1
20240530010005 56 240 0.0 0.0 0.12 0.27 0.24 93 1007.3
20240530004506 56 253 0.0 0.0 0.13 0.25 0.22 93 1007.5
20240530004005 56 254 0.0 0.0 0.15 0.25 0.22 93 1007.5
20240530003505 56 252 0.0 0.0 0.14 0.24 0.21 93 1007.5
20240530003005 56 257 0.0 0.0 0.14 0.22 0.19 93 1007.5
20240530001505 56 240 0.0 0.0 0.12 0.19 0.16 93 1008.1
20240530000505 56 264 0.0 0.0 0.11 0.17 0.14 92 1008.3
20240529234505 57 264 0.0 0.0 0.07 0.12 0.09 92 1008.5
20240529233505 57 265 0.0 0.0 0.06 0.10 0.07 92 1008.6
20240529231504 57 264 0.0 0.0 0.03 0.07 0.04 91 1008.8
20240529230505 57 265 0.0 0.0 0.02 0.06 0.03 91 1008.8
20240529230004 57 264 0.0 0.0 0.03 0.06 0.03 91 1008.8
20240529224005 57 260 0.0 0.0 0.02 0.05 0.02 91 1008.8
20240529223505 57 260 0.0 0.0 0.01 0.04 0.01 91 1009.1
20240529223005 57 260 0.0 0.0 0.01 0.04 0.01 91 1009.1
20240529221504 57 262 0.0 0.0 0.01 0.04 0.01 90 1009.1
20240529221005 57 264 0.0 0.0 0.01 0.04 0.01 90 1009.1
20240529220005 57 260 0.0 0.0 0.00 0.03 0.00 90 1009.5
20240529214004 57 249 0.0 0.0 0.00 0.03 0.03 89 1009.9
20240529213505 58 249 0.0 0.0 0.00 0.03 0.03 89 1010.2
20240529213005 58 257 0.0 2.0 0.00 0.03 0.03 88 1009.9
20240529211505 57 266 0.0 0.0 0.00 0.03 0.03 89 1010.2
20240529211004 57 264 0.0 0.0 0.00 0.03 0.03 89 1010.5
20240529210505 57 255 0.0 0.0 0.00 0.03 0.03 89 1010.2
20240529210005 57 270 0.0 0.0 0.00 0.03 0.03 89 1010.5
20240529204505 58 265 0.0 0.0 0.00 0.03 0.03 89 1010.5
20240529204005 58 266 0.0 0.0 0.00 0.03 0.03 89 1010.5
20240529203505 58 251 0.0 2.0 0.00 0.03 0.03 88 1010.5
20240529203005 58 270 0.0 2.0 0.00 0.03 0.03 89 1010.6
20240529201005 58 252 0.0 2.0 0.00 0.03 0.03 89 1010.8
20240529200505 58 287 0.0 0.0 0.00 0.03 0.03 89 1010.8
20240529200004 58 257 0.0 5.0 0.00 0.03 0.03 89 1010.8
20240529194004 58 263 0.0 2.0 0.00 0.03 0.03 88 1010.8
20240529193505 58 269 1.0 5.0 0.00 0.03 0.03 88 1010.8
20240529191504 58 250 0.0 5.0 0.00 0.03 0.03 87 1010.8
20240529191005 58 284 1.0 5.0 0.00 0.03 0.03 87 1010.8
20240529190505 58 245 1.0 3.0 0.00 0.03 0.03 86 1011.0
20240529190004 58 273 1.0 7.0 0.00 0.03 0.03 87 1010.8
20240529184505 58 304 1.0 5.0 0.00 0.03 0.03 87 1010.6
20240529184007 58 345 2.0 5.0 0.00 0.03 0.03 87 1011.2
20240529183504 58 247 0.0 3.0 0.00 0.03 0.03 87 1010.8
20240529183004 58 270 0.0 5.0 0.00 0.03 0.03 87 1010.9
20240529181506 59 242 1.0 5.0 0.00 0.03 0.03 86 1011.2
20240529181004 59 254 1.0 5.0 0.00 0.03 0.03 86 1011.2
20240529180505 59 263 3.0 5.0 0.00 0.03 0.03 86 1011.2
20240529180004 59 35 1.0 5.0 0.00 0.03 0.03 85 1011.2
20240529174004 59 288 2.0 5.0 0.00 0.03 0.03 85 1011.2
20240529173505 60 290 2.0 7.0 0.00 0.03 0.03 85 1011.4
20240529173005 60 267 2.0 7.0 0.00 0.03 0.03 83 1011.2
20240529171504 61 259 3.0 7.0 0.00 0.03 0.03 81 1011.2
20240529171004 62 336 2.0 7.0 0.00 0.03 0.03 80 1011.2
20240529170505 62 224 2.0 7.0 0.00 0.03 0.03 80 1011.2
20240529170004 62 217 2.0 7.0 0.00 0.03 0.03 80 1011.2
20240529164505 62 238 1.0 5.0 0.00 0.03 0.03 80 1011.2
20240529164004 62 284 1.0 7.0 0.00 0.03 0.03 79 1011.2
20240529163504 62 239 3.0 7.0 0.00 0.03 0.03 79 1011.2
20240529163005 63 263 1.0 5.0 0.00 0.03 0.03 78 1011.2
20240529161504 62 319 3.0 5.0 0.00 0.03 0.03 78 1011.2
20240529161004 62 283 2.0 7.0 0.00 0.03 0.03 79 1011.2
20240529160505 62 322 1.0 8.0 0.00 0.03 0.03 80 1011.3
20240529160004 63 63 3.0 8.0 0.00 0.03 0.03 79 1011.5
20240529154505 64 258 4.0 8.0 0.00 0.03 0.03 78 1011.5
20240529154004 64 276 3.0 8.0 0.00 0.03 0.03 79 1011.8
20240529153504 64 278 2.0 3.0 0.00 0.03 0.03 80 1011.7
20240529153004 63 247 1.0 7.0 0.00 0.03 0.03 82 1011.9
20240529151504 62 251 3.0 7.0 0.00 0.03 0.03 78 1012.2
20240529150506 63 264 1.0 5.0 0.00 0.03 0.03 77 1012.2
20240529150004 63 231 3.0 8.0 0.00 0.03 0.03 77 1012.2
20240529144504 62 274 2.0 10.0 0.00 0.03 0.03 78 1012.2
20240529144004 63 318 2.0 5.0 0.00 0.03 0.03 76 1011.9
20240529143504 63 271 1.0 7.0 0.00 0.03 0.03 75 1011.9
20240529143004 64 248 2.0 8.0 0.00 0.03 0.03 74 1012.2
20240529141504 64 290 2.0 8.0 0.00 0.03 0.03 72 1012.2
20240529141004 64 269 1.0 7.0 0.00 0.03 0.03 72 1012.2
20240529140505 64 250 3.0 7.0 0.00 0.03 0.03 72 1012.2
20240529140004 64 237 2.0 8.0 0.00 0.03 0.03 73 1012.2
20240529134505 64 268 1.0 7.0 0.00 0.03 0.03 73 1012.2
20240529134004 64 209 3.0 7.0 0.00 0.03 0.03 72 1012.5
20240529133504 65 240 3.0 13.0 0.00 0.03 0.03 72 1012.2
20240529133004 65 260 4.0 13.0 0.00 0.03 0.03 72 1012.3
20240529131503 65 268 4.0 13.0 0.00 0.03 0.03 73 1012.5
20240529131004 66 275 3.0 8.0 0.01 0.03 0.03 73 1012.6
20240529130504 65 23 2.0 10.0 0.01 0.03 0.03 74 1012.5
20240529130004 64 314 2.0 7.0 0.01 0.03 0.03 75 1012.7
20240529124504 65 294 1.0 8.0 0.01 0.03 0.03 75 1012.9
20240529124004 65 269 3.0 8.0 0.01 0.03 0.03 75 1012.9
20240529123504 64 241 2.0 7.0 0.01 0.03 0.03 76 1012.9
20240529123005 63 295 3.0 5.0 0.01 0.03 0.03 77 1012.9
20240529121504 61 277 2.0 7.0 0.01 0.03 0.03 82 1013.2
20240529121004 62 274 1.0 8.0 0.00 0.02 0.02 80 1013.3
20240529120504 62 231 1.0 10.0 0.00 0.02 0.02 80 1013.2
20240529120004 63 286 2.0 10.0 0.00 0.02 0.02 79 1013.2
20240529114505 62 280 0.0 8.0 0.01 0.02 0.02 79 1013.5
20240529114004 63 288 5.0 8.0 0.02 0.02 0.02 78 1013.5
20240529113503 64 281 3.0 8.0 0.02 0.02 0.02 78 1013.2
20240529113004 64 267 4.0 10.0 0.02 0.02 0.02 78 1013.2
20240529111004 62 215 1.0 10.0 0.02 0.02 0.02 82 1013.5
20240529110505 62 269 2.0 10.0 0.02 0.02 0.02 83 1013.5
20240529104504 62 252 2.0 8.0 0.01 0.01 0.01 79 1013.5
20240529104004 63 265 2.0 13.0 0.00 0.00 0.00 77 1013.5
20240529103504 63 254 2.0 7.0 0.00 0.00 0.00 77 1013.5
20240529103003 63 245 2.0 5.0 0.00 0.00 0.00 75 1013.5